sensor_id;sensor_type;location;lat;lon;timestamp;P1;durP1;ratioP1;P2;durP2;ratioP2
72132;SDS011;60008;50.826;6.896;2022-10-16T00:00:25;9.40;;;3.53;;
72132;SDS011;60008;50.826;6.896;2022-10-16T00:03:10;5.88;;;2.30;;
72132;SDS011;60008;50.826;6.896;2022-10-16T00:05:58;5.43;;;2.10;;
72132;SDS011;60008;50.826;6.896;2022-10-16T00:08:45;3.20;;;1.40;;
72132;SDS011;60008;50.826;6.896;2022-10-16T00:11:32;3.95;;;1.02;;
72132;SDS011;60008;50.826;6.896;2022-10-16T00:14:20;4.38;;;1.00;;
72132;SDS011;60008;50.826;6.896;2022-10-16T00:17:06;2.50;;;1.20;;
72132;SDS011;60008;50.826;6.896;2022-10-16T00:19:50;3.10;;;1.00;;
72132;SDS011;60008;50.826;6.896;2022-10-16T00:22:35;8.02;;;1.50;;
72132;SDS011;60008;50.826;6.896;2022-10-16T00:25:21;5.78;;;1.27;;
72132;SDS011;60008;50.826;6.896;2022-10-16T00:28:06;4.80;;;1.45;;
72132;SDS011;60008;50.826;6.896;2022-10-16T00:30:51;2.40;;;1.20;;
72132;SDS011;60008;50.826;6.896;2022-10-16T00:33:37;3.07;;;1.27;;
72132;SDS011;60008;50.826;6.896;2022-10-16T00:36:24;4.65;;;1.73;;
72132;SDS011;60008;50.826;6.896;2022-10-16T00:39:10;3.70;;;1.65;;
72132;SDS011;60008;50.826;6.896;2022-10-16T00:41:55;6.85;;;1.45;;
72132;SDS011;60008;50.826;6.896;2022-10-16T00:45:02;2.67;;;1.27;;
72132;SDS011;60008;50.826;6.896;2022-10-16T00:47:46;2.00;;;1.20;;
72132;SDS011;60008;50.826;6.896;2022-10-16T00:50:33;2.58;;;1.30;;
72132;SDS011;60008;50.826;6.896;2022-10-16T00:53:19;3.45;;;1.10;;
72132;SDS011;60008;50.826;6.896;2022-10-16T00:56:04;2.58;;;1.20;;
72132;SDS011;60008;50.826;6.896;2022-10-16T00:58:50;2.05;;;1.10;;
72132;SDS011;60008;50.826;6.896;2022-10-16T01:01:35;2.43;;;1.20;;
72132;SDS011;60008;50.826;6.896;2022-10-16T01:04:20;5.72;;;1.10;;
72132;SDS011;60008;50.826;6.896;2022-10-16T01:16:09;2.80;;;1.40;;
72132;SDS011;60008;50.826;6.896;2022-10-16T01:19:15;3.53;;;1.40;;
72132;SDS011;60008;50.826;6.896;2022-10-16T01:22:16;3.15;;;1.40;;
72132;SDS011;60008;50.826;6.896;2022-10-16T01:25:05;6.55;;;1.23;;
72132;SDS011;60008;50.826;6.896;2022-10-16T01:27:57;3.05;;;1.30;;
72132;SDS011;60008;50.826;6.896;2022-10-16T01:30:46;2.20;;;1.00;;
72132;SDS011;60008;50.826;6.896;2022-10-16T01:33:36;4.32;;;1.10;;
72132;SDS011;60008;50.826;6.896;2022-10-16T01:36:28;4.18;;;1.17;;
72132;SDS011;60008;50.826;6.896;2022-10-16T01:39:20;2.65;;;1.20;;
72132;SDS011;60008;50.826;6.896;2022-10-16T01:42:11;2.70;;;1.20;;
72132;SDS011;60008;50.826;6.896;2022-10-16T01:45:01;5.03;;;1.30;;
72132;SDS011;60008;50.826;6.896;2022-10-16T01:47:51;3.05;;;1.20;;
72132;SDS011;60008;50.826;6.896;2022-10-16T01:50:38;5.60;;;1.33;;
72132;SDS011;60008;50.826;6.896;2022-10-16T01:53:26;3.03;;;1.40;;
72132;SDS011;60008;50.826;6.896;2022-10-16T01:56:11;4.28;;;1.50;;
72132;SDS011;60008;50.826;6.896;2022-10-16T01:59:05;4.90;;;1.23;;
72132;SDS011;60008;50.826;6.896;2022-10-16T02:01:56;3.90;;;1.40;;
72132;SDS011;60008;50.826;6.896;2022-10-16T02:04:49;3.22;;;1.38;;
72132;SDS011;60008;50.826;6.896;2022-10-16T02:07:39;3.55;;;1.30;;
72132;SDS011;60008;50.826;6.896;2022-10-16T02:10:26;5.20;;;1.45;;
72132;SDS011;60008;50.826;6.896;2022-10-16T02:13:17;3.10;;;1.27;;
72132;SDS011;60008;50.826;6.896;2022-10-16T02:16:06;5.43;;;1.30;;
72132;SDS011;60008;50.826;6.896;2022-10-16T02:18:52;3.95;;;1.50;;
72132;SDS011;60008;50.826;6.896;2022-10-16T02:21:51;2.63;;;1.38;;
72132;SDS011;60008;50.826;6.896;2022-10-16T02:24:54;12.65;;;1.52;;
72132;SDS011;60008;50.826;6.896;2022-10-16T02:27:49;3.73;;;1.23;;
72132;SDS011;60008;50.826;6.896;2022-10-16T02:30:43;3.08;;;1.20;;
72132;SDS011;60008;50.826;6.896;2022-10-16T02:33:33;2.03;;;1.10;;
72132;SDS011;60008;50.826;6.896;2022-10-16T02:36:21;6.82;;;1.23;;
72132;SDS011;60008;50.826;6.896;2022-10-16T02:39:07;2.60;;;1.10;;
72132;SDS011;60008;50.826;6.896;2022-10-16T02:41:53;2.00;;;0.97;;
72132;SDS011;60008;50.826;6.896;2022-10-16T02:44:38;2.45;;;1.40;;
72132;SDS011;60008;50.826;6.896;2022-10-16T02:47:23;2.35;;;0.88;;
72132;SDS011;60008;50.826;6.896;2022-10-16T02:50:08;2.85;;;0.90;;
72132;SDS011;60008;50.826;6.896;2022-10-16T02:52:54;2.85;;;0.60;;
72132;SDS011;60008;50.826;6.896;2022-10-16T02:55:39;3.07;;;0.87;;
72132;SDS011;60008;50.826;6.896;2022-10-16T02:58:24;2.20;;;0.80;;
72132;SDS011;60008;50.826;6.896;2022-10-16T03:01:09;1.38;;;0.65;;
72132;SDS011;60008;50.826;6.896;2022-10-16T03:03:54;1.35;;;0.80;;
72132;SDS011;60008;50.826;6.896;2022-10-16T03:06:39;1.40;;;0.63;;
72132;SDS011;60008;50.826;6.896;2022-10-16T03:09:24;1.67;;;0.63;;
72132;SDS011;60008;50.826;6.896;2022-10-16T03:12:09;3.33;;;0.75;;
72132;SDS011;60008;50.826;6.896;2022-10-16T03:14:56;1.42;;;0.60;;
72132;SDS011;60008;50.826;6.896;2022-10-16T03:17:41;1.55;;;0.70;;
72132;SDS011;60008;50.826;6.896;2022-10-16T03:20:27;2.25;;;0.70;;
72132;SDS011;60008;50.826;6.896;2022-10-16T03:23:12;1.13;;;0.50;;
72132;SDS011;60008;50.826;6.896;2022-10-16T03:25:57;1.35;;;0.80;;
72132;SDS011;60008;50.826;6.896;2022-10-16T03:28:43;1.38;;;0.70;;
72132;SDS011;60008;50.826;6.896;2022-10-16T03:31:29;3.15;;;0.68;;
72132;SDS011;60008;50.826;6.896;2022-10-16T03:34:14;2.35;;;0.68;;
72132;SDS011;60008;50.826;6.896;2022-10-16T03:36:59;3.47;;;0.80;;
72132;SDS011;60008;50.826;6.896;2022-10-16T03:39:45;3.10;;;0.80;;
72132;SDS011;60008;50.826;6.896;2022-10-16T03:42:30;5.13;;;0.90;;
72132;SDS011;60008;50.826;6.896;2022-10-16T03:45:15;1.48;;;0.80;;
72132;SDS011;60008;50.826;6.896;2022-10-16T03:48:01;3.25;;;0.95;;
72132;SDS011;60008;50.826;6.896;2022-10-16T03:50:47;5.97;;;0.90;;
72132;SDS011;60008;50.826;6.896;2022-10-16T03:53:33;3.58;;;0.90;;
72132;SDS011;60008;50.826;6.896;2022-10-16T03:56:18;2.13;;;0.68;;
72132;SDS011;60008;50.826;6.896;2022-10-16T03:59:03;1.13;;;0.60;;
72132;SDS011;60008;50.826;6.896;2022-10-16T04:01:48;2.33;;;0.70;;
72132;SDS011;60008;50.826;6.896;2022-10-16T04:04:33;1.63;;;0.50;;
72132;SDS011;60008;50.826;6.896;2022-10-16T04:07:18;2.58;;;0.68;;
72132;SDS011;60008;50.826;6.896;2022-10-16T04:10:03;1.67;;;0.60;;
72132;SDS011;60008;50.826;6.896;2022-10-16T04:12:49;1.90;;;0.70;;
72132;SDS011;60008;50.826;6.896;2022-10-16T04:15:34;2.05;;;0.70;;
72132;SDS011;60008;50.826;6.896;2022-10-16T04:18:19;1.30;;;0.60;;
72132;SDS011;60008;50.826;6.896;2022-10-16T04:21:05;4.95;;;0.95;;
72132;SDS011;60008;50.826;6.896;2022-10-16T04:23:51;4.13;;;1.10;;
72132;SDS011;60008;50.826;6.896;2022-10-16T04:26:36;4.72;;;1.27;;
72132;SDS011;60008;50.826;6.896;2022-10-16T04:29:21;3.33;;;1.00;;
72132;SDS011;60008;50.826;6.896;2022-10-16T04:32:07;2.73;;;1.03;;
72132;SDS011;60008;50.826;6.896;2022-10-16T04:34:53;6.15;;;1.92;;
72132;SDS011;60008;50.826;6.896;2022-10-16T04:37:38;6.43;;;1.92;;
72132;SDS011;60008;50.826;6.896;2022-10-16T04:40:23;4.63;;;1.92;;
72132;SDS011;60008;50.826;6.896;2022-10-16T04:43:08;8.02;;;2.10;;
72132;SDS011;60008;50.826;6.896;2022-10-16T04:45:54;4.33;;;1.33;;
72132;SDS011;60008;50.826;6.896;2022-10-16T04:48:39;2.45;;;0.90;;
72132;SDS011;60008;50.826;6.896;2022-10-16T04:51:24;3.63;;;1.00;;
72132;SDS011;60008;50.826;6.896;2022-10-16T04:54:10;2.95;;;0.90;;
72132;SDS011;60008;50.826;6.896;2022-10-16T04:56:55;2.47;;;1.10;;
72132;SDS011;60008;50.826;6.896;2022-10-16T04:59:40;2.07;;;1.00;;
72132;SDS011;60008;50.826;6.896;2022-10-16T05:02:25;4.32;;;0.90;;
72132;SDS011;60008;50.826;6.896;2022-10-16T05:05:10;2.15;;;0.80;;
72132;SDS011;60008;50.826;6.896;2022-10-16T05:07:56;1.70;;;0.90;;
72132;SDS011;60008;50.826;6.896;2022-10-16T05:10:41;2.10;;;0.90;;
72132;SDS011;60008;50.826;6.896;2022-10-16T05:13:27;5.57;;;1.17;;
72132;SDS011;60008;50.826;6.896;2022-10-16T05:16:12;2.28;;;0.90;;
72132;SDS011;60008;50.826;6.896;2022-10-16T05:18:57;2.13;;;0.93;;
72132;SDS011;60008;50.826;6.896;2022-10-16T05:22:02;2.13;;;1.00;;
72132;SDS011;60008;50.826;6.896;2022-10-16T05:24:47;4.05;;;1.10;;
72132;SDS011;60008;50.826;6.896;2022-10-16T05:27:32;2.80;;;0.90;;
72132;SDS011;60008;50.826;6.896;2022-10-16T05:30:17;1.75;;;1.00;;
72132;SDS011;60008;50.826;6.896;2022-10-16T05:33:02;4.00;;;1.05;;
72132;SDS011;60008;50.826;6.896;2022-10-16T05:35:48;2.80;;;0.93;;
72132;SDS011;60008;50.826;6.896;2022-10-16T05:38:37;2.00;;;1.20;;
72132;SDS011;60008;50.826;6.896;2022-10-16T05:41:22;2.53;;;1.20;;
72132;SDS011;60008;50.826;6.896;2022-10-16T05:44:10;1.90;;;0.90;;
72132;SDS011;60008;50.826;6.896;2022-10-16T05:46:55;1.77;;;0.88;;
72132;SDS011;60008;50.826;6.896;2022-10-16T05:49:40;2.60;;;0.82;;
72132;SDS011;60008;50.826;6.896;2022-10-16T05:52:26;1.85;;;1.00;;
72132;SDS011;60008;50.826;6.896;2022-10-16T05:55:11;1.80;;;0.90;;
72132;SDS011;60008;50.826;6.896;2022-10-16T05:57:56;2.70;;;0.80;;
72132;SDS011;60008;50.826;6.896;2022-10-16T06:00:41;2.70;;;0.90;;
72132;SDS011;60008;50.826;6.896;2022-10-16T06:03:27;4.18;;;1.20;;
72132;SDS011;60008;50.826;6.896;2022-10-16T06:06:16;2.55;;;1.20;;
72132;SDS011;60008;50.826;6.896;2022-10-16T06:09:03;1.80;;;1.00;;
72132;SDS011;60008;50.826;6.896;2022-10-16T06:11:48;2.33;;;1.20;;
72132;SDS011;60008;50.826;6.896;2022-10-16T06:14:34;3.35;;;1.10;;
72132;SDS011;60008;50.826;6.896;2022-10-16T06:17:19;1.98;;;1.00;;
72132;SDS011;60008;50.826;6.896;2022-10-16T06:20:04;2.85;;;1.00;;
72132;SDS011;60008;50.826;6.896;2022-10-16T06:22:49;3.10;;;1.20;;
72132;SDS011;60008;50.826;6.896;2022-10-16T06:25:35;2.10;;;1.30;;
72132;SDS011;60008;50.826;6.896;2022-10-16T06:28:20;3.72;;;1.20;;
72132;SDS011;60008;50.826;6.896;2022-10-16T06:31:05;3.50;;;1.25;;
72132;SDS011;60008;50.826;6.896;2022-10-16T06:33:53;3.10;;;1.20;;
72132;SDS011;60008;50.826;6.896;2022-10-16T06:36:39;2.77;;;1.60;;
72132;SDS011;60008;50.826;6.896;2022-10-16T06:39:24;3.17;;;1.40;;
72132;SDS011;60008;50.826;6.896;2022-10-16T06:42:09;5.57;;;1.80;;
72132;SDS011;60008;50.826;6.896;2022-10-16T06:44:54;2.75;;;1.20;;
72132;SDS011;60008;50.826;6.896;2022-10-16T06:47:39;3.53;;;1.40;;
72132;SDS011;60008;50.826;6.896;2022-10-16T06:50:24;7.20;;;1.60;;
72132;SDS011;60008;50.826;6.896;2022-10-16T06:53:09;3.17;;;1.42;;
72132;SDS011;60008;50.826;6.896;2022-10-16T06:55:54;5.45;;;1.67;;
72132;SDS011;60008;50.826;6.896;2022-10-16T06:58:40;3.08;;;1.90;;
72132;SDS011;60008;50.826;6.896;2022-10-16T07:01:26;3.38;;;1.80;;
72132;SDS011;60008;50.826;6.896;2022-10-16T07:04:12;3.27;;;1.90;;
72132;SDS011;60008;50.826;6.896;2022-10-16T07:06:57;3.72;;;1.88;;
72132;SDS011;60008;50.826;6.896;2022-10-16T07:09:42;4.22;;;1.95;;
72132;SDS011;60008;50.826;6.896;2022-10-16T07:12:27;3.42;;;1.90;;
72132;SDS011;60008;50.826;6.896;2022-10-16T07:15:12;3.38;;;1.90;;
72132;SDS011;60008;50.826;6.896;2022-10-16T07:17:57;6.93;;;2.03;;
72132;SDS011;60008;50.826;6.896;2022-10-16T07:20:42;3.42;;;1.95;;
72132;SDS011;60008;50.826;6.896;2022-10-16T07:23:27;3.67;;;2.10;;
72132;SDS011;60008;50.826;6.896;2022-10-16T07:26:12;4.60;;;2.33;;
72132;SDS011;60008;50.826;6.896;2022-10-16T07:28:57;4.32;;;2.25;;
72132;SDS011;60008;50.826;6.896;2022-10-16T07:31:42;3.80;;;1.90;;
72132;SDS011;60008;50.826;6.896;2022-10-16T07:34:27;3.35;;;1.90;;
72132;SDS011;60008;50.826;6.896;2022-10-16T07:37:12;2.78;;;1.60;;
72132;SDS011;60008;50.826;6.896;2022-10-16T07:39:57;4.93;;;1.80;;
72132;SDS011;60008;50.826;6.896;2022-10-16T07:42:43;5.95;;;2.00;;
72132;SDS011;60008;50.826;6.896;2022-10-16T07:45:28;5.00;;;2.20;;
72132;SDS011;60008;50.826;6.896;2022-10-16T07:48:13;3.88;;;2.05;;
72132;SDS011;60008;50.826;6.896;2022-10-16T07:50:58;5.60;;;2.10;;
72132;SDS011;60008;50.826;6.896;2022-10-16T07:53:47;6.95;;;2.00;;
72132;SDS011;60008;50.826;6.896;2022-10-16T07:56:33;3.10;;;2.00;;
72132;SDS011;60008;50.826;6.896;2022-10-16T07:59:18;4.10;;;2.10;;
72132;SDS011;60008;50.826;6.896;2022-10-16T08:02:03;5.43;;;2.78;;
72132;SDS011;60008;50.826;6.896;2022-10-16T08:04:48;5.82;;;2.30;;
72132;SDS011;60008;50.826;6.896;2022-10-16T08:07:34;3.80;;;2.20;;
72132;SDS011;60008;50.826;6.896;2022-10-16T08:10:20;5.78;;;2.15;;
72132;SDS011;60008;50.826;6.896;2022-10-16T08:13:06;5.47;;;2.07;;
72132;SDS011;60008;50.826;6.896;2022-10-16T08:15:56;3.17;;;1.83;;
72132;SDS011;60008;50.826;6.896;2022-10-16T08:18:42;4.22;;;2.10;;
72132;SDS011;60008;50.826;6.896;2022-10-16T08:21:27;3.95;;;1.80;;
72132;SDS011;60008;50.826;6.896;2022-10-16T08:24:12;8.00;;;1.83;;
72132;SDS011;60008;50.826;6.896;2022-10-16T08:26:57;2.90;;;1.63;;
72132;SDS011;60008;50.826;6.896;2022-10-16T08:29:42;5.15;;;1.60;;
72132;SDS011;60008;50.826;6.896;2022-10-16T08:32:27;2.88;;;1.50;;
72132;SDS011;60008;50.826;6.896;2022-10-16T08:35:13;2.75;;;1.50;;
72132;SDS011;60008;50.826;6.896;2022-10-16T08:37:59;2.47;;;1.13;;
72132;SDS011;60008;50.826;6.896;2022-10-16T08:40:44;2.37;;;1.10;;
72132;SDS011;60008;50.826;6.896;2022-10-16T08:43:43;3.40;;;1.00;;
72132;SDS011;60008;50.826;6.896;2022-10-16T08:50:08;2.22;;;1.00;;
72132;SDS011;60008;50.826;6.896;2022-10-16T08:52:55;3.45;;;0.70;;
72132;SDS011;60008;50.826;6.896;2022-10-16T08:55:42;6.77;;;0.80;;
72132;SDS011;60008;50.826;6.896;2022-10-16T08:58:30;2.47;;;0.50;;
72132;SDS011;60008;50.826;6.896;2022-10-16T09:01:16;1.35;;;0.55;;
72132;SDS011;60008;50.826;6.896;2022-10-16T09:13:01;1.35;;;0.50;;
72132;SDS011;60008;50.826;6.896;2022-10-16T09:22:01;1.10;;;0.50;;
72132;SDS011;60008;50.826;6.896;2022-10-16T09:24:57;1.30;;;0.60;;
72132;SDS011;60008;50.826;6.896;2022-10-16T09:27:52;1.35;;;0.40;;
72132;SDS011;60008;50.826;6.896;2022-10-16T09:30:38;2.53;;;0.60;;
72132;SDS011;60008;50.826;6.896;2022-10-16T09:33:25;1.92;;;0.50;;
72132;SDS011;60008;50.826;6.896;2022-10-16T09:36:15;1.45;;;0.52;;
72132;SDS011;60008;50.826;6.896;2022-10-16T09:39:03;2.50;;;0.57;;
72132;SDS011;60008;50.826;6.896;2022-10-16T09:41:50;3.92;;;0.50;;
72132;SDS011;60008;50.826;6.896;2022-10-16T09:44:36;1.35;;;0.40;;
72132;SDS011;60008;50.826;6.896;2022-10-16T09:47:23;3.58;;;0.60;;
72132;SDS011;60008;50.826;6.896;2022-10-16T09:50:22;0.90;;;0.50;;
72132;SDS011;60008;50.826;6.896;2022-10-16T09:53:12;1.80;;;0.40;;
72132;SDS011;60008;50.826;6.896;2022-10-16T09:55:58;2.03;;;0.50;;
72132;SDS011;60008;50.826;6.896;2022-10-16T09:58:49;1.15;;;0.40;;
72132;SDS011;60008;50.826;6.896;2022-10-16T10:01:36;2.45;;;0.50;;
72132;SDS011;60008;50.826;6.896;2022-10-16T10:04:24;2.10;;;0.50;;
72132;SDS011;60008;50.826;6.896;2022-10-16T10:07:16;0.93;;;0.40;;
72132;SDS011;60008;50.826;6.896;2022-10-16T10:10:04;1.35;;;0.40;;
72132;SDS011;60008;50.826;6.896;2022-10-16T10:12:50;1.20;;;0.40;;
72132;SDS011;60008;50.826;6.896;2022-10-16T10:15:41;3.30;;;0.52;;
72132;SDS011;60008;50.826;6.896;2022-10-16T10:18:26;2.08;;;0.50;;
72132;SDS011;60008;50.826;6.896;2022-10-16T10:21:14;3.00;;;0.40;;
72132;SDS011;60008;50.826;6.896;2022-10-16T10:24:00;3.47;;;0.43;;
72132;SDS011;60008;50.826;6.896;2022-10-16T10:26:50;1.13;;;0.43;;
72132;SDS011;60008;50.826;6.896;2022-10-16T10:29:58;1.15;;;0.30;;
72132;SDS011;60008;50.826;6.896;2022-10-16T10:32:57;1.73;;;0.40;;
72132;SDS011;60008;50.826;6.896;2022-10-16T10:39:08;5.57;;;1.65;;
72132;SDS011;60008;50.826;6.896;2022-10-16T10:48:23;1.25;;;0.30;;
72132;SDS011;60008;50.826;6.896;2022-10-16T10:51:44;2.60;;;0.50;;
72132;SDS011;60008;50.826;6.896;2022-10-16T10:54:56;0.90;;;0.32;;
72132;SDS011;60008;50.826;6.896;2022-10-16T10:57:56;1.05;;;0.38;;
72132;SDS011;60008;50.826;6.896;2022-10-16T11:10:21;1.45;;;0.40;;
72132;SDS011;60008;50.826;6.896;2022-10-16T11:13:13;1.58;;;0.50;;
72132;SDS011;60008;50.826;6.896;2022-10-16T11:16:23;0.95;;;0.30;;
72132;SDS011;60008;50.826;6.896;2022-10-16T11:19:14;4.10;;;0.30;;
72132;SDS011;60008;50.826;6.896;2022-10-16T11:22:27;1.10;;;0.30;;
72132;SDS011;60008;50.826;6.896;2022-10-16T11:25:22;1.20;;;0.45;;
72132;SDS011;60008;50.826;6.896;2022-10-16T11:28:16;1.77;;;0.63;;
72132;SDS011;60008;50.826;6.896;2022-10-16T11:31:37;0.93;;;0.40;;
72132;SDS011;60008;50.826;6.896;2022-10-16T11:37:38;1.43;;;0.50;;
72132;SDS011;60008;50.826;6.896;2022-10-16T11:40:29;1.17;;;0.40;;
72132;SDS011;60008;50.826;6.896;2022-10-16T11:46:11;1.67;;;0.50;;
72132;SDS011;60008;50.826;6.896;2022-10-16T11:49:08;3.30;;;0.60;;
72132;SDS011;60008;50.826;6.896;2022-10-16T11:55:17;1.38;;;0.40;;
72132;SDS011;60008;50.826;6.896;2022-10-16T11:58:06;2.97;;;0.50;;
72132;SDS011;60008;50.826;6.896;2022-10-16T12:07:15;3.93;;;0.40;;
72132;SDS011;60008;50.826;6.896;2022-10-16T12:10:24;1.40;;;0.43;;
72132;SDS011;60008;50.826;6.896;2022-10-16T12:13:32;1.40;;;0.50;;
72132;SDS011;60008;50.826;6.896;2022-10-16T12:16:20;1.50;;;0.40;;
72132;SDS011;60008;50.826;6.896;2022-10-16T12:19:10;4.75;;;0.50;;
72132;SDS011;60008;50.826;6.896;2022-10-16T12:22:00;1.00;;;0.50;;
72132;SDS011;60008;50.826;6.896;2022-10-16T12:24:50;1.02;;;0.55;;
72132;SDS011;60008;50.826;6.896;2022-10-16T12:27:36;1.35;;;0.40;;
72132;SDS011;60008;50.826;6.896;2022-10-16T12:30:22;2.08;;;0.40;;
72132;SDS011;60008;50.826;6.896;2022-10-16T12:33:19;1.38;;;0.47;;
72132;SDS011;60008;50.826;6.896;2022-10-16T12:36:26;1.77;;;0.50;;
72132;SDS011;60008;50.826;6.896;2022-10-16T12:39:20;1.10;;;0.30;;
72132;SDS011;60008;50.826;6.896;2022-10-16T12:45:31;0.70;;;0.30;;
72132;SDS011;60008;50.826;6.896;2022-10-16T12:48:21;1.73;;;0.40;;
72132;SDS011;60008;50.826;6.896;2022-10-16T12:51:33;2.23;;;0.50;;
72132;SDS011;60008;50.826;6.896;2022-10-16T13:00:24;4.35;;;0.55;;
72132;SDS011;60008;50.826;6.896;2022-10-16T13:03:32;3.13;;;0.40;;
72132;SDS011;60008;50.826;6.896;2022-10-16T13:09:22;0.95;;;0.38;;
72132;SDS011;60008;50.826;6.896;2022-10-16T13:12:23;1.55;;;0.70;;
72132;SDS011;60008;50.826;6.896;2022-10-16T13:21:56;3.00;;;0.50;;
72132;SDS011;60008;50.826;6.896;2022-10-16T13:27:59;2.33;;;0.50;;
72132;SDS011;60008;50.826;6.896;2022-10-16T13:30:52;1.00;;;0.40;;
72132;SDS011;60008;50.826;6.896;2022-10-16T13:33:41;1.20;;;0.50;;
72132;SDS011;60008;50.826;6.896;2022-10-16T13:36:34;1.80;;;0.50;;
72132;SDS011;60008;50.826;6.896;2022-10-16T13:39:24;1.95;;;0.70;;
72132;SDS011;60008;50.826;6.896;2022-10-16T13:42:15;2.60;;;0.55;;
72132;SDS011;60008;50.826;6.896;2022-10-16T13:45:19;1.95;;;0.70;;
72132;SDS011;60008;50.826;6.896;2022-10-16T13:48:06;1.80;;;0.60;;
72132;SDS011;60008;50.826;6.896;2022-10-16T13:51:04;2.77;;;0.70;;
72132;SDS011;60008;50.826;6.896;2022-10-16T13:53:51;1.75;;;0.80;;
72132;SDS011;60008;50.826;6.896;2022-10-16T13:56:38;2.10;;;0.60;;
72132;SDS011;60008;50.826;6.896;2022-10-16T13:59:42;2.72;;;0.50;;
72132;SDS011;60008;50.826;6.896;2022-10-16T14:05:19;1.47;;;0.57;;
72132;SDS011;60008;50.826;6.896;2022-10-16T14:08:04;1.02;;;0.50;;
72132;SDS011;60008;50.826;6.896;2022-10-16T14:10:50;0.80;;;0.30;;
72132;SDS011;60008;50.826;6.896;2022-10-16T14:13:44;1.30;;;0.38;;
72132;SDS011;60008;50.826;6.896;2022-10-16T14:16:31;1.55;;;0.50;;
72132;SDS011;60008;50.826;6.896;2022-10-16T14:19:24;1.97;;;0.60;;
72132;SDS011;60008;50.826;6.896;2022-10-16T14:28:21;1.75;;;0.45;;
72132;SDS011;60008;50.826;6.896;2022-10-16T14:34:04;1.93;;;0.50;;
72132;SDS011;60008;50.826;6.896;2022-10-16T14:36:49;1.17;;;0.47;;
72132;SDS011;60008;50.826;6.896;2022-10-16T14:39:34;1.98;;;0.40;;
72132;SDS011;60008;50.826;6.896;2022-10-16T14:42:21;0.95;;;0.32;;
72132;SDS011;60008;50.826;6.896;2022-10-16T14:45:10;1.63;;;0.60;;
72132;SDS011;60008;50.826;6.896;2022-10-16T14:48:00;3.20;;;0.70;;
72132;SDS011;60008;50.826;6.896;2022-10-16T14:50:49;1.30;;;0.60;;
72132;SDS011;60008;50.826;6.896;2022-10-16T14:53:34;1.67;;;0.52;;
72132;SDS011;60008;50.826;6.896;2022-10-16T14:56:20;1.98;;;0.60;;
72132;SDS011;60008;50.826;6.896;2022-10-16T14:59:08;1.55;;;0.40;;
72132;SDS011;60008;50.826;6.896;2022-10-16T15:05:10;2.67;;;0.50;;
72132;SDS011;60008;50.826;6.896;2022-10-16T15:08:08;5.05;;;0.63;;
72132;SDS011;60008;50.826;6.896;2022-10-16T15:10:53;1.60;;;0.50;;
72132;SDS011;60008;50.826;6.896;2022-10-16T15:13:38;1.55;;;0.45;;
72132;SDS011;60008;50.826;6.896;2022-10-16T15:16:23;1.20;;;0.60;;
72132;SDS011;60008;50.826;6.896;2022-10-16T15:19:09;1.63;;;0.43;;
72132;SDS011;60008;50.826;6.896;2022-10-16T15:21:53;1.55;;;0.40;;
72132;SDS011;60008;50.826;6.896;2022-10-16T15:24:39;2.10;;;0.40;;
72132;SDS011;60008;50.826;6.896;2022-10-16T15:27:24;1.35;;;0.57;;
72132;SDS011;60008;50.826;6.896;2022-10-16T15:30:09;3.63;;;0.50;;
72132;SDS011;60008;50.826;6.896;2022-10-16T15:32:55;1.08;;;0.40;;
72132;SDS011;60008;50.826;6.896;2022-10-16T15:35:40;1.75;;;0.60;;
72132;SDS011;60008;50.826;6.896;2022-10-16T15:38:26;1.30;;;0.60;;
72132;SDS011;60008;50.826;6.896;2022-10-16T15:41:12;1.75;;;0.50;;
72132;SDS011;60008;50.826;6.896;2022-10-16T15:43:57;3.40;;;0.50;;
72132;SDS011;60008;50.826;6.896;2022-10-16T15:46:43;0.93;;;0.40;;
72132;SDS011;60008;50.826;6.896;2022-10-16T15:49:28;1.10;;;0.55;;
72132;SDS011;60008;50.826;6.896;2022-10-16T15:52:13;2.30;;;0.60;;
72132;SDS011;60008;50.826;6.896;2022-10-16T15:54:58;1.30;;;0.50;;
72132;SDS011;60008;50.826;6.896;2022-10-16T15:57:43;1.03;;;0.50;;
72132;SDS011;60008;50.826;6.896;2022-10-16T16:00:29;1.20;;;0.60;;
72132;SDS011;60008;50.826;6.896;2022-10-16T16:03:14;4.40;;;0.70;;
72132;SDS011;60008;50.826;6.896;2022-10-16T16:06:03;1.30;;;0.40;;
72132;SDS011;60008;50.826;6.896;2022-10-16T16:08:50;1.30;;;0.40;;
72132;SDS011;60008;50.826;6.896;2022-10-16T16:11:36;2.87;;;0.60;;
72132;SDS011;60008;50.826;6.896;2022-10-16T16:14:23;4.30;;;0.50;;
72132;SDS011;60008;50.826;6.896;2022-10-16T16:17:10;1.50;;;0.70;;
72132;SDS011;60008;50.826;6.896;2022-10-16T16:19:55;2.83;;;0.60;;
72132;SDS011;60008;50.826;6.896;2022-10-16T16:22:40;1.40;;;0.60;;
72132;SDS011;60008;50.826;6.896;2022-10-16T16:25:26;1.07;;;0.40;;
72132;SDS011;60008;50.826;6.896;2022-10-16T16:28:11;1.13;;;0.50;;
72132;SDS011;60008;50.826;6.896;2022-10-16T16:30:59;0.95;;;0.50;;
72132;SDS011;60008;50.826;6.896;2022-10-16T16:33:44;1.77;;;0.60;;
72132;SDS011;60008;50.826;6.896;2022-10-16T16:36:29;1.63;;;0.55;;
72132;SDS011;60008;50.826;6.896;2022-10-16T16:39:14;1.20;;;0.60;;
72132;SDS011;60008;50.826;6.896;2022-10-16T16:41:59;3.58;;;0.70;;
72132;SDS011;60008;50.826;6.896;2022-10-16T16:44:44;2.38;;;0.70;;
72132;SDS011;60008;50.826;6.896;2022-10-16T16:47:31;1.85;;;0.60;;
72132;SDS011;60008;50.826;6.896;2022-10-16T16:50:16;3.15;;;0.70;;
72132;SDS011;60008;50.826;6.896;2022-10-16T16:53:02;1.77;;;0.77;;
72132;SDS011;60008;50.826;6.896;2022-10-16T16:55:47;2.30;;;0.90;;
72132;SDS011;60008;50.826;6.896;2022-10-16T16:58:32;1.92;;;0.80;;
72132;SDS011;60008;50.826;6.896;2022-10-16T17:01:18;3.72;;;0.80;;
72132;SDS011;60008;50.826;6.896;2022-10-16T17:04:05;3.42;;;1.00;;
72132;SDS011;60008;50.826;6.896;2022-10-16T17:06:52;2.27;;;0.90;;
72132;SDS011;60008;50.826;6.896;2022-10-16T17:09:39;2.35;;;1.00;;
72132;SDS011;60008;50.826;6.896;2022-10-16T17:12:24;3.22;;;1.10;;
72132;SDS011;60008;50.826;6.896;2022-10-16T17:15:09;1.95;;;0.85;;
72132;SDS011;60008;50.826;6.896;2022-10-16T17:17:54;2.83;;;0.90;;
72132;SDS011;60008;50.826;6.896;2022-10-16T17:20:39;1.80;;;0.90;;
72132;SDS011;60008;50.826;6.896;2022-10-16T17:23:25;2.42;;;1.10;;
72132;SDS011;60008;50.826;6.896;2022-10-16T17:26:14;2.70;;;1.20;;
72132;SDS011;60008;50.826;6.896;2022-10-16T17:29:00;2.15;;;0.95;;
72132;SDS011;60008;50.826;6.896;2022-10-16T17:31:46;2.30;;;1.00;;
72132;SDS011;60008;50.826;6.896;2022-10-16T17:34:34;2.87;;;1.17;;
72132;SDS011;60008;50.826;6.896;2022-10-16T17:37:19;2.47;;;1.30;;
72132;SDS011;60008;50.826;6.896;2022-10-16T17:40:04;2.38;;;1.00;;
72132;SDS011;60008;50.826;6.896;2022-10-16T17:42:50;2.65;;;1.30;;
72132;SDS011;60008;50.826;6.896;2022-10-16T17:45:35;3.35;;;1.52;;
72132;SDS011;60008;50.826;6.896;2022-10-16T17:48:21;4.20;;;1.40;;
72132;SDS011;60008;50.826;6.896;2022-10-16T17:51:08;7.05;;;1.30;;
72132;SDS011;60008;50.826;6.896;2022-10-16T17:53:56;3.35;;;1.50;;
72132;SDS011;60008;50.826;6.896;2022-10-16T17:56:42;2.03;;;1.02;;
72132;SDS011;60008;50.826;6.896;2022-10-16T17:59:28;3.75;;;1.10;;
72132;SDS011;60008;50.826;6.896;2022-10-16T18:02:13;2.57;;;1.37;;
72132;SDS011;60008;50.826;6.896;2022-10-16T18:04:58;2.55;;;1.20;;
72132;SDS011;60008;50.826;6.896;2022-10-16T18:07:44;2.58;;;1.30;;
72132;SDS011;60008;50.826;6.896;2022-10-16T18:10:29;3.25;;;1.42;;
72132;SDS011;60008;50.826;6.896;2022-10-16T18:13:15;2.50;;;1.40;;
72132;SDS011;60008;50.826;6.896;2022-10-16T18:16:01;2.80;;;1.40;;
72132;SDS011;60008;50.826;6.896;2022-10-16T18:18:48;2.40;;;1.30;;
72132;SDS011;60008;50.826;6.896;2022-10-16T18:21:33;3.00;;;1.23;;
72132;SDS011;60008;50.826;6.896;2022-10-16T18:24:19;6.10;;;1.40;;
72132;SDS011;60008;50.826;6.896;2022-10-16T18:27:03;5.05;;;1.63;;
72132;SDS011;60008;50.826;6.896;2022-10-16T18:29:48;3.40;;;1.40;;
72132;SDS011;60008;50.826;6.896;2022-10-16T18:32:34;2.53;;;1.23;;